KETN

Eastland Municipal Airport

Eastland, Texas, USA
METAR KETN 101555Z AUTO 00000KT 10SM CLR 06/M01 A3041 RMK AO2 T00611009
Observed Flight Rules
Dec-10 @ 15:55 UTC (12 minutes ago) Visual Flight Rules
Visibility Clouds
10 miles
  • Clear skies
Temperatures Readings
Current 6°C / 43°F
Dewpoint -1°C / 30°F
Humidity 61%
Altimeter 30.41" Hg
Pressure 1030 hPa
Elevation 446
METAR KETN 101555Z AUTO 00000KT 10SM CLR 06/M01 A3041 RMK AO2 T00611009
Observed Flight Rules
Dec-10 @ 15:55 UTC
(12 minutes ago)
VFR
Clouds
  • Clear skies
Temperature Dewpoint
6°C / 43°F -1°C / 30°F
Humidity Altimeter Pressure
61% 30.41" Hg 1030 hPa